Strensall, United Kingdom
Current Conditions -  °F | °C
As of 3:50 PM on Thursday 18 Dec 2014 (Local Time) from EGXU Reporting Station
Light Rain Light Rain  
Wind Chill: 55°   Ceiling: 1700
Heat Index: 55°   Visibility: 6mi
Dew Point: 52°   Wind: 23mph
Humidity: 88%   Direction: 240°WSW
Pressure: 29.5"   Gusts: 36mph
Location:  54.04°N, 1.04°W
Report Text: EGXU 181550Z 24020G31KT 9999 -RA BKN017 13/11 Q0999 WHT NOSIG
Loading
Personal Weather Stations






























Interactive Weather Map New forecast layout! Learn more

10-Day Weather Forecast

Advertisements
Track Severe Weather on mobile